Latest Weather Observations for Heron Island

IDQ60801

Issued at 2:02 pm EST Saturday 25 May 2024 (issued every 10 minutes, with the page automatically refreshed every 10 minutes)

About weather observations | Map of weather stations | Latest weather observations for QLD | Other Formats
Station Details ID: 039122 Name: HERON ISLAND RES STN Lat: -23.44 Lon: 151.91 Height: 3.3 m
Data from the previous 72 hours. | See also: Recent months at Heron Island
Date/Time
EST
Temp
°C
App
Temp
°C
Dew
Point
°C
Rel
Hum
%
Delta-T
°C
Wind Press
QNH
hPa
Press
MSL
hPa
Rain since
9am
mm
Dir  Spd
km/h
Gust
km/h
Spd
kts
Gust
kts
25/02:00pm - - - - - SSE 24 37 13 20 - - -
25/01:30pm - - - - - SSE 26 41 14 22 - - -
25/01:00pm - - - - - SE 30 37 16 20 - - -
25/12:30pm - - - - - S 30 41 16 22 - - -
25/12:00pm - - - - - S 20 30 11 16 - - -
25/11:30am - - - - - S 17 26 9 14 - - -
25/11:03am - - - - - SE 28 46 15 25 - - -
25/11:00am - - - - - SE 32 46 17 25 - - -
25/10:50am - - - - - SSE 28 48 15 26 - - -
25/10:30am - - - - - SSE 24 33 13 18 - - -
25/10:00am - - - - - SSE 24 33 13 18 - - -
25/09:30am - - - - - SSE 24 35 13 19 - - -
25/09:00am - - - - - SSE 24 35 13 19 - - -
25/08:47am - - - - - SSE 28 46 15 25 - - -
25/08:30am - - - - - SSE 24 39 13 21 - - -
25/08:10am - - - - - SSE 30 48 16 26 - - -
25/08:00am - - - - - SE 33 46 18 25 - - -
25/07:55am - - - - - SE 28 44 15 24 - - -
25/07:30am - - - - - E 13 17 7 9 - - -
25/07:00am - - - - - NE 17 28 9 15 - - -
25/06:30am - - - - - SE 24 35 13 19 - - -
25/06:13am - - - - - SE 26 48 14 26 - - -
25/06:00am - - - - - ESE 11 17 6 9 - - -
25/05:30am - - - - - E 19 28 10 15 - - -
25/05:00am - - - - - SSE 17 28 9 15 - - -
25/04:30am - - - - - SE 17 26 9 14 - - -
25/04:00am - - - - - ESE 24 35 13 19 - - -
25/03:30am - - - - - E 22 32 12 17 - - -
25/03:00am - - - - - SE 24 33 13 18 - - -
25/02:30am - - - - - SE 30 41 16 22 - - -
25/02:00am - - - - - SE 30 41 16 22 - - -
25/01:30am - - - - - SE 35 48 19 26 - - -
25/01:18am - - - - - SE 28 48 15 26 - - -
25/01:00am - - - - - SE 17 32 9 17 - - -
25/12:30am - - - - - SSE 24 37 13 20 - - -
25/12:00am - - - - - SSE 26 39 14 21 - - -
 
Date/Time
EST
Temp
°C
App
Temp
°C
Dew
Point
°C
Rel
Hum
%
Delta-T
°C
Wind Press
QNH
hPa
Press
MSL
hPa
Rain since
9am
mm
Dir  Spd
km/h
Gust
km/h
Spd
kts
Gust
kts
24/11:51pm - - - - - SE 20 48 11 26 - - -
24/11:30pm - - - - - SE 13 17 7 9 - - -
24/11:00pm - - - - - E 11 17 6 9 - - -
24/10:30pm - - - - - E 22 32 12 17 - - -
24/10:00pm - - - - - ENE 26 35 14 19 - - -
24/09:30pm - - - - - ESE 20 37 11 20 - - -
24/09:00pm - - - - - ESE 19 30 10 16 - - -
24/08:30pm - - - - - E 24 35 13 19 - - -
24/08:00pm - - - - - SE 24 35 13 19 - - -
24/07:30pm - - - - - ESE 26 35 14 19 - - -
24/07:00pm - - - - - SE 30 48 16 26 - - -
24/06:39pm - - - - - SE 33 52 18 28 - - -
24/06:30pm - - - - - SE 35 50 19 27 - - -
24/06:27pm - - - - - SE 32 50 17 27 - - -
24/06:00pm - - - - - SE 26 37 14 20 - - -
24/05:30pm - - - - - SE 30 46 16 25 - - -
24/05:00pm - - - - - SSE 22 33 12 18 - - -
24/04:30pm - - - - - SSE 35 54 19 29 - - -
24/04:24pm - - - - - SE 33 57 18 31 - - -
24/04:21pm - - - - - SSE 28 57 15 31 - - -
24/04:00pm - - - - - SSE 20 35 11 19 - - -
24/03:30pm - - - - - SSE 24 33 13 18 - - -
24/03:00pm - - - - - SE 28 37 15 20 - - -
24/02:30pm - - - - - SE 26 37 14 20 - - -
24/02:00pm - - - - - ESE 24 35 13 19 - - -
24/01:30pm - - - - - ESE 22 33 12 18 - - -
24/01:00pm - - - - - ESE 22 32 12 17 - - -
24/12:30pm - - - - - ESE 20 37 11 20 - - -
24/12:17pm - - - - - SE 28 46 15 25 - - -
24/12:00pm - - - - - SE 28 41 15 22 - - -
24/11:30am - - - - - SE 33 43 18 23 - - -
24/11:00am - - - - - ESE 28 37 15 20 - - -
24/10:38am - - - - - ESE 19 39 10 21 - - -
24/10:30am - - - - - E 13 19 7 10 - - -
24/10:00am - - - - - ESE 17 28 9 15 - - -
24/09:30am - - - - - ESE 24 37 13 20 - - -
24/09:00am - - - - - SE 26 32 14 17 - - -
24/08:30am - - - - - SE 24 32 13 17 - - -
24/08:00am - - - - - ESE 33 48 18 26 - - -
24/07:42am - - - - - ESE 28 50 15 27 - - -
24/07:30am - - - - - ESE 26 37 14 20 - - -
24/07:00am - - - - - ESE 28 39 15 21 - - -
24/06:30am - - - - - SE 30 41 16 22 - - -
24/06:00am - - - - - ESE 26 35 14 19 - - -
24/05:30am - - - - - ESE 26 37 14 20 - - -
24/05:00am - - - - - ESE 28 39 15 21 - - -
24/04:30am - - - - - ESE 32 46 17 25 - - -
24/04:04am - - - - - ESE 30 48 16 26 - - -
24/04:00am - - - - - ESE 30 44 16 24 - - -
24/03:49am - - - - - ESE 30 48 16 26 - - -
24/03:30am - - - - - SE 24 39 13 21 - - -
24/03:00am - - - - - ESE 24 35 13 19 - - -
24/02:30am - - - - - SE 28 43 15 23 - - -
24/02:00am - - - - - ESE 33 57 18 31 - - -
24/01:30am - - - - - ESE 30 48 16 26 - - -
24/01:25am - - - - - SE 28 48 15 26 - - -
24/01:00am - - - - - ESE 32 46 17 25 - - -
24/12:30am - - - - - ESE 30 43 16 23 - - -
24/12:00am - - - - - E 15 26 8 14 - - -
 
Date/Time
EST
Temp
°C
App
Temp
°C
Dew
Point
°C
Rel
Hum
%
Delta-T
°C
Wind Press
QNH
hPa
Press
MSL
hPa
Rain since
9am
mm
Dir  Spd
km/h
Gust
km/h
Spd
kts
Gust
kts
23/11:30pm - - - - - ESE 20 33 11 18 - - -
23/11:05pm - - - - - E 28 46 15 25 - - -
23/11:00pm - - - - - E 30 46 16 25 - - -
23/10:59pm - - - - - E 28 46 15 25 - - -
23/10:30pm - - - - - ESE 20 32 11 17 - - -
23/10:00pm - - - - - ESE 24 48 13 26 - - -
23/09:30pm - - - - - SE 24 35 13 19 - - -
23/09:23pm - - - - - SE 30 48 16 26 - - -
23/09:00pm - - - - - SE 33 44 18 24 - - -
23/08:30pm - - - - - SE 32 43 17 23 - - -
23/08:00pm - - - - - SE 35 44 19 24 - - -
23/07:30pm - - - - - SE 32 43 17 23 - - -
23/07:00pm - - - - - SE 32 41 17 22 - - -
23/06:30pm - - - - - SE 33 44 18 24 - - -
23/06:00pm - - - - - SE 33 44 18 24 - - -
23/05:30pm - - - - - SE 32 43 17 23 - - -
23/05:00pm - - - - - SE 24 33 13 18 - - -
23/04:30pm - - - - - ESE 22 33 12 18 - - -
23/04:00pm - - - - - SE 24 32 13 17 - - -
23/03:30pm - - - - - SE 19 26 10 14 - - -
23/03:00pm - - - - - SE 24 35 13 19 - - -
23/02:30pm - - - - - SSE 19 30 10 16 - - -
23/02:00pm - - - - - ESE 15 26 8 14 - - -
23/01:30pm - - - - - ESE 24 35 13 19 - - -
23/01:00pm - - - - - SE 30 39 16 21 - - -
23/12:30pm - - - - - SSE 24 37 13 20 - - -
23/12:00pm - - - - - SSE 28 43 15 23 - - -
23/11:30am - - - - - SE 30 39 16 21 - - -
23/11:05am - - - - - SSE 28 46 15 25 - - -
23/11:00am - - - - - SSE 22 35 12 19 - - -
23/10:30am - - - - - ESE 26 37 14 20 - - -
23/10:14am - - - - - SSE 28 48 15 26 - - -
23/10:00am - - - - - SSE 24 39 13 21 - - -
23/09:30am - - - - - SSE 26 37 14 20 - - -
23/09:00am - - - - - SE 28 39 15 21 - - -
23/08:32am - - - - - SSE 30 48 16 26 - - -
23/08:30am - - - - - SSE 24 48 13 26 - - -
23/08:09am - - - - - SE 26 48 14 26 - - -
23/08:00am - - - - - ESE 26 39 14 21 - - -
23/07:30am - - - - - ESE 28 46 15 25 - - -
23/07:08am - - - - - SE 28 46 15 25 - - -
23/07:00am - - - - - SSE 26 37 14 20 - - -
23/06:30am - - - - - SE 28 44 15 24 - - -
23/06:00am - - - - - SE 24 35 13 19 - - -
23/05:31am - - - - - SSE 30 48 16 26 - - -
23/05:30am - - - - - SSE 30 41 16 22 - - -
23/05:00am - - - - - SSE 22 37 12 20 - - -
23/04:30am - - - - - SE 28 39 15 21 - - -
23/04:00am - - - - - SE 28 39 15 21 - - -
23/03:30am - - - - - ESE 26 35 14 19 - - -
23/03:00am - - - - - ESE 24 35 13 19 - - -
23/02:30am - - - - - E 22 41 12 22 - - -
23/02:00am - - - - - SSE 28 39 15 21 - - -
23/01:30am - - - - - SSE 28 41 15 22 - - -
23/01:18am - - - - - SE 30 41 16 22 - - -
23/01:00am - - - - - SSE 15 22 8 12 - - -
23/12:37am - - - - - SSE 24 50 13 27 - - -
23/12:36am - - - - - SSE 22 43 12 23 - - -
23/12:30am - - - - - SE 17 33 9 18 - - -
23/12:00am - - - - - ESE 28 41 15 22 - - -
 
Date/Time
EST
Temp
°C
App
Temp
°C
Dew
Point
°C
Rel
Hum
%
Delta-T
°C
Wind Press
QNH
hPa
Press
MSL
hPa
Rain since
9am
mm
Dir  Spd
km/h
Gust
km/h
Spd
kts
Gust
kts
22/11:30pm - - - - - ESE 26 41 14 22 - - -
22/11:00pm - - - - - ESE 24 33 13 18 - - -
22/10:30pm - - - - - ESE 26 41 14 22 - - -
22/10:00pm - - - - - E 26 37 14 20 - - -
22/09:30pm - - - - - SE 30 41 16 22 - - -
22/09:00pm - - - - - SE 32 39 17 21 - - -
22/08:30pm - - - - - SE 26 35 14 19 - - -
22/08:00pm - - - - - E 24 33 13 18 - - -
22/07:30pm - - - - - ESE 22 37 12 20 - - -
22/07:00pm - - - - - ESE 26 35 14 19 - - -
22/06:30pm - - - - - SE 30 39 16 21 - - -
22/06:00pm - - - - - ESE 26 39 14 21 - - -
22/05:30pm - - - - - SE 33 46 18 25 - - -
22/05:00pm - - - - - SE 32 44 17 24 - - -
22/04:30pm - - - - - SSE 30 39 16 21 - - -
22/04:00pm - - - - - SE 30 43 16 23 - - -
22/03:30pm - - - - - SSE 28 39 15 21 - - -
22/03:00pm - - - - - SSE 28 43 15 23 - - -
22/02:30pm - - - - - SSE 30 39 16 21 - - -

Other formats

Comma delimited format used in spreadsheet applications
http://www.bom.gov.au/fwo/IDQ60801/IDQ60801.94386.axf

JavaScript Object Notation format (JSON) in row-major order
http://www.bom.gov.au/fwo/IDQ60801/IDQ60801.94386.json

Data quality

Most of these data are generated automatically and are frequently updated. Quality checks on data are not normally performed. It is possible for incorrect values to appear. Refer to information at About Latest Weather Observations and please check the disclaimer before using these data.